createdAt,value
2023-04-25T00:00:24.961Z,79.38
2023-04-25T00:01:28.907Z,78.60
2023-04-25T00:02:33.145Z,78.84
2023-04-25T00:03:37.130Z,78.77
2023-04-25T00:04:40.609Z,78.35
2023-04-25T00:05:45.520Z,79.08
2023-04-25T00:06:48.335Z,78.85
2023-04-25T00:07:52.295Z,78.65
2023-04-25T00:08:55.110Z,78.08
2023-04-25T00:09:59.152Z,77.78
2023-04-25T00:11:02.969Z,77.19
2023-04-25T00:12:08.428Z,77.82
2023-04-25T00:13:12.735Z,78.15
2023-04-25T00:14:17.837Z,78.41
2023-04-25T00:15:21.041Z,79.16
2023-04-25T00:16:25.114Z,79.00
2023-04-25T00:17:28.204Z,79.28
2023-04-25T00:18:34.335Z,79.74
2023-04-25T00:19:38.961Z,79.49
2023-04-25T00:20:47.702Z,79.59
2023-04-25T00:21:50.333Z,79.71
2023-04-25T00:22:54.907Z,79.67
2023-04-25T00:23:57.726Z,79.88
2023-04-25T00:25:01.997Z,81.23
2023-04-25T00:26:05.527Z,80.45
2023-04-25T00:27:10.128Z,79.88
2023-04-25T00:28:14.576Z,79.80
2023-04-25T00:29:17.216Z,79.50
2023-04-25T00:30:21.151Z,80.73
2023-04-25T00:31:23.925Z,80.64
2023-04-25T00:32:27.691Z,80.39
2023-04-25T00:33:30.444Z,80.16
2023-04-25T00:34:34.552Z,80.40
2023-04-25T00:35:38.310Z,78.86
2023-04-25T00:36:41.911Z,79.61
2023-04-25T00:37:44.455Z,79.90
2023-04-25T00:38:48.009Z,80.17
2023-04-25T00:39:50.669Z,79.60
2023-04-25T00:40:56.709Z,79.42
2023-04-25T00:41:59.931Z,79.54
2023-04-25T00:43:05.201Z,79.39
2023-04-25T00:44:08.970Z,78.84
2023-04-25T00:45:16.568Z,78.37
2023-04-25T00:46:19.288Z,79.69
2023-04-25T00:47:24.037Z,79.79
2023-04-25T00:48:26.455Z,80.10
2023-04-25T00:49:30.192Z,80.16
2023-04-25T00:50:34.823Z,80.40
2023-04-25T00:51:38.547Z,80.16
2023-04-25T00:52:42.927Z,80.02
2023-04-25T00:53:48.941Z,79.48
2023-04-25T00:54:51.773Z,80.10
2023-04-25T00:55:56.370Z,80.04
2023-04-25T00:56:59.235Z,80.61
2023-04-25T00:58:04.709Z,80.17
2023-04-25T00:59:07.577Z,80.68
2023-04-25T01:00:14.624Z,80.33
2023-04-25T01:01:17.903Z,80.46
2023-04-25T01:02:22.828Z,79.73
2023-04-25T01:03:26.088Z,79.54
2023-04-25T01:04:30.706Z,80.14
2023-04-25T01:05:33.630Z,80.46
2023-04-25T01:06:37.677Z,80.78
2023-04-25T01:07:41.699Z,80.01
2023-04-25T01:08:45.431Z,79.58
2023-04-25T01:09:47.993Z,78.97
2023-04-25T01:10:51.641Z,80.06
2023-04-25T01:11:54.305Z,79.77
2023-04-25T01:12:58.213Z,79.36
2023-04-25T01:14:03.213Z,78.97
2023-04-25T01:15:07.957Z,80.14
2023-04-25T01:16:11.060Z,80.32
2023-04-25T01:17:16.469Z,80.34
2023-04-25T01:18:21.650Z,80.08
2023-04-25T01:19:26.725Z,79.85
2023-04-25T01:20:31.061Z,79.29
2023-04-25T01:21:36.605Z,79.41
2023-04-25T01:22:39.456Z,79.75
2023-04-25T01:23:44.094Z,79.72
2023-04-25T01:24:47.037Z,80.45
2023-04-25T01:25:51.647Z,80.19
2023-04-25T01:26:57.525Z,80.35
2023-04-25T01:28:01.343Z,80.97
2023-04-25T01:29:05.774Z,81.06
2023-04-25T01:30:10.932Z,80.71
2023-04-25T01:31:14.408Z,80.98
2023-04-25T01:32:18.806Z,81.62
2023-04-25T01:33:23.389Z,81.40
2023-04-25T01:34:27.172Z,81.16
2023-04-25T01:35:29.871Z,81.10
2023-04-25T01:36:33.646Z,82.03
2023-04-25T01:37:37.860Z,81.93
2023-04-25T01:38:41.913Z,81.60
2023-04-25T01:39:44.767Z,80.89
2023-04-25T01:40:48.940Z,80.14
2023-04-25T01:41:52.110Z,80.17
2023-04-25T01:42:56.228Z,80.86
2023-04-25T01:44:00.324Z,80.94
2023-04-25T01:45:04.811Z,82.08
2023-04-25T01:46:08.822Z,81.88
2023-04-25T01:47:11.333Z,81.66
2023-04-25T01:48:16.238Z,81.95
2023-04-25T01:49:19.862Z,81.96
2023-04-25T01:50:22.531Z,81.81
2023-04-25T01:51:26.024Z,81.48
2023-04-25T01:52:28.456Z,81.34
2023-04-25T01:53:33.581Z,81.34
2023-04-25T01:54:35.915Z,81.77
2023-04-25T01:55:39.208Z,81.04
2023-04-25T01:56:41.631Z,81.17
2023-04-25T01:57:45.189Z,80.92
2023-04-25T01:58:47.835Z,80.22
2023-04-25T01:59:52.444Z,80.08
2023-04-25T02:00:54.853Z,79.76
2023-04-25T02:01:59.830Z,80.49
2023-04-25T02:03:02.833Z,80.44
2023-04-25T02:04:07.089Z,79.53
2023-04-25T02:05:10.103Z,79.66
2023-04-25T02:06:13.594Z,80.33
2023-04-25T02:07:17.049Z,79.77
2023-04-25T02:08:20.556Z,79.69
2023-04-25T02:09:24.774Z,79.00
2023-04-25T02:10:28.501Z,79.29
2023-04-25T02:11:31.440Z,78.83
2023-04-25T02:12:35.136Z,79.22
2023-04-25T02:13:38.054Z,79.17
2023-04-25T02:14:42.092Z,79.23
2023-04-25T02:15:45.040Z,80.05
2023-04-25T02:16:49.197Z,80.25
2023-04-25T02:17:53.860Z,80.35
2023-04-25T02:18:57.737Z,80.69
2023-04-25T02:20:01.093Z,80.33
2023-04-25T02:21:05.192Z,79.94
2023-04-25T02:22:08.219Z,78.89
2023-04-25T02:23:12.310Z,78.25
2023-04-25T02:24:15.040Z,78.61
2023-04-25T02:25:21.444Z,78.56
2023-04-25T02:26:25.198Z,79.44
2023-04-25T02:27:28.847Z,78.62
2023-04-25T02:28:32.220Z,79.54
2023-04-25T02:29:36.421Z,80.02
2023-04-25T02:30:39.794Z,79.05
2023-04-25T02:31:44.584Z,79.73
2023-04-25T02:32:47.848Z,79.61
2023-04-25T02:33:52.999Z,79.70
2023-04-25T02:34:56.111Z,80.34
2023-04-25T02:36:00.930Z,79.41
2023-04-25T02:37:03.804Z,79.16
2023-04-25T02:38:08.072Z,78.85
2023-04-25T02:39:11.770Z,79.17
2023-04-25T02:40:15.900Z,79.36
2023-04-25T02:41:20.011Z,79.27
2023-04-25T02:42:23.865Z,79.75
2023-04-25T02:43:28.066Z,79.88
2023-04-25T02:44:30.787Z,79.87
2023-04-25T02:45:34.267Z,80.22
2023-04-25T02:46:39.454Z,80.11
2023-04-25T02:47:43.943Z,79.92
2023-04-25T02:48:46.688Z,79.44
2023-04-25T02:49:50.536Z,79.57
2023-04-25T02:50:52.874Z,79.97
2023-04-25T02:51:56.541Z,79.55
2023-04-25T02:52:59.214Z,79.69
2023-04-25T02:54:03.073Z,79.64
2023-04-25T02:55:06.681Z,79.42
2023-04-25T02:56:10.646Z,79.11
2023-04-25T02:57:15.000Z,79.29
2023-04-25T02:58:18.850Z,79.43
2023-04-25T02:59:21.470Z,78.88
2023-04-25T03:00:25.163Z,79.32
2023-04-25T03:01:28.010Z,78.55
2023-04-25T03:02:32.531Z,78.62
2023-04-25T03:03:35.394Z,78.65
2023-04-25T03:04:39.532Z,78.18
2023-04-25T03:05:42.293Z,78.97
2023-04-25T03:06:46.091Z,80.29
2023-04-25T03:07:49.141Z,79.86
2023-04-25T03:08:52.919Z,79.29
2023-04-25T03:09:56.822Z,78.96
2023-04-25T03:11:01.139Z,79.79
2023-04-25T03:12:04.307Z,80.12
2023-04-25T03:13:09.641Z,80.27
2023-04-25T03:14:12.230Z,79.83
2023-04-25T03:15:17.883Z,80.19
2023-04-25T03:16:20.968Z,79.56
2023-04-25T03:17:24.899Z,79.05
2023-04-25T03:18:28.157Z,79.07
2023-04-25T03:19:31.952Z,78.35
2023-04-25T03:20:34.812Z,78.64
2023-04-25T03:21:39.324Z,78.89
2023-04-25T03:22:43.301Z,78.80
2023-04-25T03:23:48.874Z,78.97
2023-04-25T03:24:51.647Z,78.91
2023-04-25T03:25:56.055Z,78.47
2023-04-25T03:26:58.873Z,77.86
2023-04-25T03:28:02.621Z,77.25
2023-04-25T03:29:06.916Z,77.70
2023-04-25T03:30:11.494Z,77.47
2023-04-25T03:31:14.052Z,77.92
2023-04-25T03:32:17.764Z,77.82
2023-04-25T03:33:20.822Z,78.19
2023-04-25T03:34:25.192Z,78.93
2023-04-25T03:35:27.954Z,79.09
2023-04-25T03:36:31.716Z,79.66
2023-04-25T03:37:34.076Z,79.14
2023-04-25T03:38:37.711Z,78.78
2023-04-25T03:39:40.323Z,79.57
2023-04-25T03:40:44.239Z,79.56
2023-04-25T03:41:46.839Z,79.96
2023-04-25T03:42:50.559Z,81.17
2023-04-25T03:43:52.975Z,80.97
2023-04-25T03:44:57.836Z,79.72
2023-04-25T03:46:00.456Z,79.07
2023-04-25T03:47:04.302Z,80.16
2023-04-25T03:48:07.042Z,79.72
2023-04-25T03:49:10.591Z,80.38
2023-04-25T03:50:12.984Z,80.02
2023-04-25T03:51:16.930Z,79.25
2023-04-25T03:52:19.944Z,78.53
2023-04-25T03:53:23.778Z,78.82
2023-04-25T03:54:26.916Z,78.24
2023-04-25T03:55:30.342Z,78.21
2023-04-25T03:56:32.961Z,77.95
2023-04-25T03:57:36.348Z,78.97
2023-04-25T03:58:39.024Z,78.80
2023-04-25T03:59:42.410Z,79.27
2023-04-25T04:00:47.548Z,79.72
2023-04-25T04:01:50.218Z,79.49
2023-04-25T04:02:54.128Z,79.11
2023-04-25T04:03:57.193Z,79.18
2023-04-25T04:05:02.097Z,79.31
2023-04-25T04:06:06.802Z,79.39
2023-04-25T04:07:09.511Z,78.90
2023-04-25T04:08:13.322Z,78.55
2023-04-25T04:09:16.789Z,77.94
2023-04-25T04:10:20.421Z,78.57
2023-04-25T04:11:22.883Z,79.16
2023-04-25T04:12:26.627Z,78.71
2023-04-25T04:13:29.876Z,79.98
2023-04-25T04:14:33.602Z,78.98
2023-04-25T04:15:36.462Z,78.62
2023-04-25T04:16:41.667Z,78.89
2023-04-25T04:17:44.305Z,79.13
2023-04-25T04:18:48.974Z,78.64
2023-04-25T04:19:52.078Z,78.21
2023-04-25T04:20:56.020Z,77.59
2023-04-25T04:21:59.093Z,78.06
2023-04-25T04:23:02.995Z,78.25
2023-04-25T04:24:07.524Z,78.08
2023-04-25T04:25:12.955Z,78.17
2023-04-25T04:26:17.545Z,77.51
2023-04-25T04:27:22.574Z,76.97
2023-04-25T04:28:26.690Z,76.06
2023-04-25T04:29:30.818Z,76.48
2023-04-25T04:30:34.538Z,76.35
2023-04-25T04:31:38.877Z,77.05
2023-04-25T04:32:43.145Z,77.07
2023-04-25T04:33:47.772Z,76.73
2023-04-25T04:34:50.888Z,77.28
2023-04-25T04:35:56.805Z,77.14
2023-04-25T04:36:59.471Z,77.37
2023-04-25T04:38:03.099Z,77.99
2023-04-25T04:39:10.491Z,78.14
2023-04-25T04:40:13.564Z,77.88
2023-04-25T04:41:17.427Z,77.60
2023-04-25T04:42:20.064Z,79.10
2023-04-25T04:43:24.121Z,79.22
2023-04-25T04:44:27.289Z,79.59
2023-04-25T04:45:31.175Z,78.55
2023-04-25T04:46:38.824Z,78.60
2023-04-25T04:47:44.445Z,78.06
2023-04-25T04:48:48.386Z,78.95
2023-04-25T04:49:51.254Z,78.61
2023-04-25T04:50:54.994Z,78.64
2023-04-25T04:51:59.778Z,79.07
2023-04-25T04:53:03.920Z,78.86
2023-04-25T04:54:07.494Z,79.35
2023-04-25T04:55:10.338Z,77.64
2023-04-25T04:56:13.675Z,77.30
2023-04-25T04:57:17.633Z,77.42
2023-04-25T04:58:21.279Z,78.18
2023-04-25T04:59:23.874Z,78.77
2023-04-25T05:00:29.731Z,78.68
2023-04-25T05:01:32.460Z,78.64
2023-04-25T05:02:36.158Z,78.29
2023-04-25T05:03:40.209Z,79.02
2023-04-25T05:04:43.789Z,78.85
2023-04-25T05:05:47.153Z,78.38
2023-04-25T05:06:50.644Z,79.17
2023-04-25T05:07:53.232Z,79.39
2023-04-25T05:08:57.057Z,79.21
2023-04-25T05:09:59.684Z,78.81
2023-04-25T05:11:03.450Z,78.91
2023-04-25T05:12:07.893Z,78.06
2023-04-25T05:13:11.768Z,78.15
2023-04-25T05:14:15.272Z,78.52
2023-04-25T05:15:19.253Z,78.78
2023-04-25T05:16:22.269Z,79.37
2023-04-25T05:17:26.142Z,79.27
2023-04-25T05:18:28.708Z,78.57
2023-04-25T05:19:34.922Z,79.47
2023-04-25T05:20:37.709Z,78.50
2023-04-25T05:21:41.630Z,78.01
2023-04-25T05:22:44.984Z,77.13
2023-04-25T05:23:48.575Z,77.23
2023-04-25T05:24:55.177Z,76.96
2023-04-25T05:26:00.169Z,77.23
2023-04-25T05:27:03.661Z,77.01
2023-04-25T05:28:08.198Z,77.48
2023-04-25T05:29:10.976Z,76.67
2023-04-25T05:30:14.634Z,76.44
2023-04-25T05:31:17.032Z,75.99
2023-04-25T05:32:21.058Z,76.12
2023-04-25T05:33:23.941Z,76.11
2023-04-25T05:34:27.685Z,75.89
2023-04-25T05:35:32.234Z,75.57
2023-04-25T05:36:36.216Z,75.57
2023-04-25T05:37:38.734Z,75.84
2023-04-25T05:38:42.335Z,76.59
2023-04-25T05:39:45.241Z,76.43
2023-04-25T05:40:48.901Z,76.15
2023-04-25T05:41:51.375Z,76.49
2023-04-25T05:42:55.073Z,76.03
2023-04-25T05:43:58.398Z,75.83
2023-04-25T05:45:02.587Z,75.91
2023-04-25T05:46:07.176Z,75.53
2023-04-25T05:47:10.866Z,75.25
2023-04-25T05:48:13.424Z,75.12
2023-04-25T05:49:18.958Z,75.52
2023-04-25T05:50:22.381Z,76.01
2023-04-25T05:51:28.804Z,75.83
2023-04-25T05:52:31.890Z,75.64
2023-04-25T05:53:35.254Z,75.98
2023-04-25T05:54:37.454Z,76.22
2023-04-25T05:55:41.117Z,76.27
2023-04-25T05:56:43.826Z,76.23
2023-04-25T05:57:49.018Z,75.64
2023-04-25T05:58:54.990Z,75.66
2023-04-25T05:59:57.523Z,75.73
2023-04-25T06:01:01.190Z,75.18
2023-04-25T06:02:04.907Z,75.91
2023-04-25T06:03:10.932Z,75.69
2023-04-25T06:04:14.960Z,75.97
2023-04-25T06:05:17.836Z,76.20
2023-04-25T06:06:22.035Z,76.31
2023-04-25T06:07:26.859Z,76.92
2023-04-25T06:08:29.432Z,76.53
2023-04-25T06:09:33.385Z,76.15
2023-04-25T06:10:36.191Z,75.79
2023-04-25T06:11:39.923Z,75.74
2023-04-25T06:12:42.772Z,75.04
2023-04-25T06:13:46.592Z,75.08
2023-04-25T06:14:49.393Z,75.92
2023-04-25T06:15:53.165Z,76.19
2023-04-25T06:16:55.943Z,76.09
2023-04-25T06:17:59.594Z,75.79
2023-04-25T06:19:03.368Z,75.63
2023-04-25T06:20:07.405Z,74.63
2023-04-25T06:21:11.641Z,73.32
2023-04-25T06:22:14.544Z,72.84
2023-04-25T06:23:19.567Z,72.04
2023-04-25T06:24:22.394Z,71.87
2023-04-25T06:25:26.391Z,71.92
2023-04-25T06:26:29.225Z,73.27
2023-04-25T06:27:32.875Z,72.40
2023-04-25T06:28:36.222Z,71.90
2023-04-25T06:29:40.472Z,72.15
2023-04-25T06:30:44.202Z,71.74
2023-04-25T06:31:48.673Z,71.71
2023-04-25T06:32:51.190Z,72.79
2023-04-25T06:33:56.325Z,73.19
2023-04-25T06:35:00.337Z,73.72
2023-04-25T06:36:04.437Z,74.61
2023-04-25T06:37:08.628Z,74.46
2023-04-25T06:38:11.309Z,73.65
2023-04-25T06:39:18.082Z,73.44
2023-04-25T06:40:21.609Z,72.36
2023-04-25T06:41:25.840Z,72.29
2023-04-25T06:42:31.749Z,72.11
2023-04-25T06:43:35.704Z,72.14
2023-04-25T06:44:39.949Z,71.35
2023-04-25T06:45:44.107Z,71.88
2023-04-25T06:46:49.169Z,72.42
2023-04-25T06:47:52.196Z,70.95
2023-04-25T06:48:57.406Z,71.45
2023-04-25T06:50:01.435Z,70.96
2023-04-25T06:51:05.884Z,70.68
2023-04-25T06:52:09.706Z,70.46
2023-04-25T06:53:13.704Z,70.48
2023-04-25T06:54:19.131Z,70.82
2023-04-25T06:55:22.205Z,70.23
2023-04-25T06:56:26.175Z,70.04
2023-04-25T06:57:29.414Z,69.99
2023-04-25T06:58:33.803Z,69.89
2023-04-25T06:59:37.857Z,69.74
2023-04-25T07:00:40.643Z,69.61
2023-04-25T07:01:44.785Z,69.27
2023-04-25T07:02:47.876Z,69.23
2023-04-25T07:03:52.407Z,68.13
2023-04-25T07:04:57.423Z,69.37
2023-04-25T07:06:01.640Z,69.73
2023-04-25T07:07:05.707Z,68.59
2023-04-25T07:08:08.490Z,68.48
2023-04-25T07:09:13.740Z,69.51
2023-04-25T07:10:18.000Z,69.62
2023-04-25T07:11:22.222Z,69.88
2023-04-25T07:12:24.990Z,70.37
2023-04-25T07:13:29.062Z,69.37
2023-04-25T07:14:32.891Z,68.69
2023-04-25T07:15:37.361Z,68.27
2023-04-25T07:16:41.135Z,68.61
2023-04-25T07:17:45.176Z,67.93
2023-04-25T07:18:49.488Z,68.09
2023-04-25T07:19:52.621Z,68.64
2023-04-25T07:20:56.550Z,67.84
2023-04-25T07:22:00.585Z,67.98
2023-04-25T07:23:03.206Z,68.18
2023-04-25T07:24:07.922Z,68.71
2023-04-25T07:25:10.870Z,70.49
2023-04-25T07:26:16.508Z,71.17
2023-04-25T07:27:19.367Z,71.06
2023-04-25T07:28:23.551Z,70.95
2023-04-25T07:29:26.074Z,69.81
2023-04-25T07:30:29.716Z,71.12
2023-04-25T07:31:33.339Z,71.92
2023-04-25T07:32:37.798Z,72.42
2023-04-25T07:33:40.703Z,73.46
2023-04-25T07:34:44.803Z,74.42
2023-04-25T07:35:48.389Z,75.14
2023-04-25T07:36:51.719Z,75.09
2023-04-25T07:37:55.815Z,75.13
2023-04-25T07:38:58.628Z,74.76
2023-04-25T07:40:02.587Z,74.84
2023-04-25T07:41:06.491Z,74.54
2023-04-25T07:42:11.621Z,74.11
2023-04-25T07:43:17.806Z,72.75
2023-04-25T07:44:20.399Z,71.90
2023-04-25T07:45:24.850Z,71.56
2023-04-25T07:46:27.899Z,70.26
2023-04-25T07:47:32.198Z,70.24
2023-04-25T07:48:35.494Z,69.98
2023-04-25T07:49:40.188Z,68.88
2023-04-25T07:50:45.484Z,67.72
2023-04-25T07:51:48.560Z,66.68
2023-04-25T07:52:52.659Z,65.94
2023-04-25T07:53:56.684Z,64.49
2023-04-25T07:54:59.901Z,64.20
2023-04-25T07:56:04.370Z,63.27
2023-04-25T07:57:07.687Z,62.75
2023-04-25T07:58:16.445Z,63.17
2023-04-25T07:59:19.023Z,63.58
2023-04-25T08:00:22.972Z,65.08
2023-04-25T08:01:25.581Z,67.25
2023-04-25T08:02:29.653Z,66.96
2023-04-25T08:03:32.714Z,67.32
2023-04-25T08:04:37.410Z,67.47
2023-04-25T08:05:41.150Z,68.02
2023-04-25T08:06:44.918Z,67.66
2023-04-25T08:07:47.603Z,68.01
2023-04-25T08:08:51.884Z,67.95
2023-04-25T08:09:57.354Z,68.19
2023-04-25T08:11:00.447Z,67.88
2023-04-25T08:12:04.220Z,67.39
2023-04-25T08:13:07.390Z,66.75
2023-04-25T08:14:13.430Z,66.55
2023-04-25T08:15:17.960Z,66.54
2023-04-25T08:16:20.894Z,66.36
2023-04-25T08:17:24.833Z,67.34
2023-04-25T08:18:27.545Z,67.62
2023-04-25T08:19:31.395Z,67.20
2023-04-25T08:20:34.010Z,66.36
2023-04-25T08:21:38.358Z,65.95
2023-04-25T08:22:42.219Z,66.68
2023-04-25T08:23:44.970Z,66.86
2023-04-25T08:24:48.649Z,66.58
2023-04-25T08:25:53.396Z,66.70
2023-04-25T08:26:57.093Z,67.79
2023-04-25T08:28:00.690Z,67.95
2023-04-25T08:29:05.851Z,68.29
2023-04-25T08:30:11.937Z,68.44
2023-04-25T08:31:16.391Z,69.52
2023-04-25T08:32:20.193Z,69.24
2023-04-25T08:33:23.725Z,68.93
2023-04-25T08:34:27.761Z,69.48
2023-04-25T08:35:31.442Z,70.36
2023-04-25T08:36:39.170Z,70.79
2023-04-25T08:37:43.692Z,71.39
2023-04-25T08:38:46.588Z,71.79
2023-04-25T08:39:53.509Z,71.42
2023-04-25T08:40:59.692Z,71.57
2023-04-25T08:42:05.021Z,71.55
2023-04-25T08:43:12.816Z,71.58
2023-04-25T08:44:17.923Z,71.00
2023-04-25T08:45:24.378Z,70.88
2023-04-25T08:46:28.531Z,70.65
2023-04-25T08:47:34.979Z,70.85
2023-04-25T08:48:38.953Z,70.81
2023-04-25T08:49:44.659Z,70.09
2023-04-25T08:50:53.118Z,70.13
2023-04-25T08:52:01.712Z,69.73
2023-04-25T08:53:10.582Z,69.41
2023-04-25T08:54:30.742Z,68.72
2023-04-25T08:55:43.876Z,69.12
2023-04-25T08:56:50.091Z,68.75
2023-04-25T08:57:56.366Z,68.97
2023-04-25T08:59:02.323Z,68.67
2023-04-25T09:00:06.687Z,69.75
2023-04-25T09:01:12.333Z,69.98
2023-04-25T09:02:19.181Z,70.75
2023-04-25T09:03:22.876Z,70.54
2023-04-25T09:04:27.703Z,69.32
2023-04-25T09:05:32.038Z,69.27
2023-04-25T09:06:35.976Z,69.77
2023-04-25T09:07:39.865Z,69.48
2023-04-25T09:08:42.416Z,68.87
2023-04-25T09:09:45.978Z,69.28
2023-04-25T09:10:49.523Z,69.67
2023-04-25T09:11:51.958Z,70.06
2023-04-25T09:13:06.388Z,69.72
2023-04-25T09:14:14.214Z,70.23
2023-04-25T09:16:25.214Z,71.39
2023-04-25T09:17:27.987Z,70.58
2023-04-25T09:18:32.876Z,70.66
2023-04-25T09:19:40.823Z,71.16
2023-04-25T09:21:00.809Z,71.63
2023-04-25T09:22:07.010Z,71.33
2023-04-25T09:23:09.850Z,70.78
2023-04-25T09:24:13.449Z,71.38
2023-04-25T09:25:17.036Z,71.61
2023-04-25T09:26:21.259Z,71.85
2023-04-25T09:27:26.384Z,71.47
2023-04-25T09:28:30.992Z,71.62
2023-04-25T09:29:34.530Z,72.80
2023-04-25T09:30:39.496Z,72.18
2023-04-25T09:31:44.136Z,72.85
2023-04-25T09:32:48.007Z,72.83
2023-04-25T09:33:52.342Z,72.92
2023-04-25T09:34:58.640Z,73.67
2023-04-25T09:36:06.843Z,74.61
2023-04-25T09:37:11.147Z,75.02
2023-04-25T09:38:16.019Z,74.80
2023-04-25T09:39:20.918Z,74.99
2023-04-25T09:40:25.138Z,74.77
2023-04-25T09:41:29.308Z,75.21
2023-04-25T09:42:33.174Z,75.83
2023-04-25T09:43:36.963Z,76.58
2023-04-25T09:44:44.375Z,76.17
2023-04-25T09:45:48.632Z,76.48
2023-04-25T09:46:54.593Z,76.62
2023-04-25T09:47:59.222Z,76.31
2023-04-25T09:49:09.937Z,77.05
2023-04-25T09:50:18.499Z,76.20
2023-04-25T09:51:29.371Z,75.83
2023-04-25T09:52:33.500Z,74.98
2023-04-25T09:53:37.401Z,73.82
2023-04-25T09:54:41.729Z,73.21
2023-04-25T09:55:48.481Z,71.77
2023-04-25T09:56:53.845Z,70.39
2023-04-25T09:58:04.888Z,69.45
2023-04-25T09:59:09.661Z,68.67
2023-04-25T10:00:14.429Z,68.83
2023-04-25T10:01:19.647Z,68.92
2023-04-25T10:02:25.548Z,69.78
2023-04-25T10:03:32.470Z,69.66
2023-04-25T10:04:37.308Z,69.83
2023-04-25T10:05:42.977Z,69.91
2023-04-25T10:06:48.769Z,70.49
2023-04-25T10:07:54.090Z,70.32
2023-04-25T10:08:59.221Z,68.90
2023-04-25T10:10:05.404Z,68.73
2023-04-25T10:11:10.425Z,68.69
2023-04-25T10:12:15.219Z,68.34
2023-04-25T10:13:18.452Z,68.38
2023-04-25T10:14:22.463Z,68.82
2023-04-25T10:15:26.567Z,69.68
2023-04-25T10:16:30.373Z,70.68
2023-04-25T10:17:38.195Z,71.39
2023-04-25T10:18:42.131Z,71.55
2023-04-25T10:19:45.325Z,71.03
2023-04-25T10:20:50.692Z,72.80
2023-04-25T10:22:05.250Z,71.95
2023-04-25T10:23:16.217Z,70.93
2023-04-25T10:24:20.516Z,69.35
2023-04-25T10:25:25.356Z,68.19
2023-04-25T10:26:30.070Z,66.83
2023-04-25T10:27:35.239Z,64.46
2023-04-25T10:29:00.855Z,63.96
2023-04-25T10:30:07.655Z,63.56
2023-04-25T10:31:11.821Z,64.24
2023-04-25T10:32:15.889Z,63.73
2023-04-25T10:33:20.581Z,62.72
2023-04-25T10:34:40.814Z,62.92
2023-04-25T10:35:44.536Z,63.32
2023-04-25T10:36:53.885Z,64.02
2023-04-25T10:38:06.335Z,66.42
2023-04-25T10:39:11.163Z,66.57
2023-04-25T10:40:15.902Z,67.33
2023-04-25T10:41:21.707Z,66.41
2023-04-25T10:42:25.447Z,66.40
2023-04-25T10:43:39.022Z,65.26
2023-04-25T10:44:42.617Z,65.29
2023-04-25T10:45:54.771Z,63.70
2023-04-25T10:46:59.432Z,63.03
2023-04-25T10:48:04.682Z,64.52
2023-04-25T10:49:13.045Z,64.83
2023-04-25T10:50:18.638Z,66.19
2023-04-25T10:51:23.864Z,66.45
2023-04-25T10:52:29.396Z,64.78
2023-04-25T10:53:34.897Z,63.41
2023-04-25T10:54:43.301Z,61.32
2023-04-25T10:55:54.898Z,60.50
2023-04-25T10:57:02.093Z,61.13
2023-04-25T10:58:06.528Z,58.17
2023-04-25T10:59:11.573Z,57.14
2023-04-25T11:00:17.378Z,57.34
2023-04-25T11:01:23.934Z,56.15
2023-04-25T11:02:29.408Z,56.13
2023-04-25T11:03:34.223Z,56.57
2023-04-25T11:04:40.097Z,55.47
2023-04-25T11:05:57.757Z,53.76
2023-04-25T11:07:16.099Z,53.75
2023-04-25T11:08:35.258Z,53.39
2023-04-25T11:09:41.201Z,52.71
2023-04-25T11:10:45.111Z,51.60
2023-04-25T11:11:56.020Z,54.01
2023-04-25T11:13:00.676Z,55.64
2023-04-25T11:14:03.837Z,54.69
2023-04-25T11:15:09.756Z,56.17
2023-04-25T11:16:23.422Z,56.17
2023-04-25T11:17:31.123Z,57.14
2023-04-25T11:18:35.642Z,58.42
2023-04-25T11:19:40.665Z,58.86
2023-04-25T11:20:46.345Z,59.81
2023-04-25T11:21:49.161Z,61.62
2023-04-25T11:22:52.908Z,62.55
2023-04-25T11:23:57.625Z,63.55
2023-04-25T11:25:07.308Z,63.05
2023-04-25T11:26:10.242Z,63.57
2023-04-25T11:27:15.273Z,64.31
2023-04-25T11:28:25.043Z,63.32
2023-04-25T11:29:30.421Z,63.33
2023-04-25T11:30:34.327Z,63.16
2023-04-25T11:31:37.279Z,62.17
2023-04-25T11:32:43.513Z,62.32
2023-04-25T11:33:47.391Z,62.47
2023-04-25T11:34:54.121Z,62.47
2023-04-25T11:35:58.431Z,62.47
2023-04-25T11:37:01.926Z,62.18
2023-04-25T11:38:05.812Z,62.17
2023-04-25T11:39:08.649Z,63.26
2023-04-25T11:40:13.862Z,64.26
2023-04-25T11:41:17.919Z,64.11
2023-04-25T11:42:22.463Z,63.77
2023-04-25T11:43:25.427Z,62.89
2023-04-25T11:44:29.535Z,61.52
2023-04-25T11:45:33.452Z,60.85
2023-04-25T11:46:36.348Z,59.54
2023-04-25T11:47:40.390Z,58.68
2023-04-25T11:48:45.970Z,58.29
2023-04-25T11:49:52.384Z,56.52
2023-04-25T11:50:58.429Z,57.34
2023-04-25T11:52:02.059Z,56.37
2023-04-25T11:53:05.455Z,55.96
2023-04-25T11:54:09.049Z,55.72
2023-04-25T11:55:17.043Z,55.36
2023-04-25T11:56:21.999Z,54.33
2023-04-25T11:57:25.872Z,57.03
2023-04-25T11:58:30.138Z,56.63
2023-04-25T11:59:34.133Z,56.35
2023-04-25T12:00:37.040Z,56.39
2023-04-25T12:01:42.677Z,56.09
2023-04-25T12:02:47.403Z,54.64
2023-04-25T12:03:50.397Z,53.09
2023-04-25T12:04:54.938Z,52.93
2023-04-25T12:06:04.870Z,52.63
2023-04-25T12:07:12.450Z,52.93
2023-04-25T12:08:17.195Z,54.44
2023-04-25T12:09:24.448Z,54.45
2023-04-25T12:10:27.983Z,53.26
2023-04-25T12:11:32.980Z,53.34
2023-04-25T12:12:38.346Z,54.18
2023-04-25T12:13:40.764Z,53.92
2023-04-25T12:14:50.018Z,53.40
2023-04-25T12:15:54.236Z,53.63
2023-04-25T12:16:58.826Z,53.22
2023-04-25T12:18:04.818Z,51.95
2023-04-25T12:19:07.719Z,52.72
2023-04-25T12:20:13.486Z,54.37
2023-04-25T12:21:19.688Z,54.85
2023-04-25T12:22:26.048Z,55.14
2023-04-25T12:23:30.600Z,54.34
2023-04-25T12:24:39.265Z,54.88
2023-04-25T12:25:43.923Z,55.72
2023-04-25T12:26:52.094Z,55.21
2023-04-25T12:27:56.224Z,55.76
2023-04-25T12:28:58.753Z,56.69
2023-04-25T12:30:03.058Z,55.35
2023-04-25T12:31:08.520Z,56.18
2023-04-25T12:32:11.501Z,55.63
2023-04-25T12:33:16.340Z,56.33
2023-04-25T12:34:20.503Z,55.26
2023-04-25T12:35:24.089Z,54.72
2023-04-25T12:36:29.471Z,53.28
2023-04-25T12:37:32.606Z,53.84
2023-04-25T12:38:39.606Z,54.24
2023-04-25T12:39:42.729Z,54.68
2023-04-25T12:40:50.483Z,55.75
2023-04-25T12:41:56.175Z,55.25
2023-04-25T12:43:00.481Z,55.26
2023-04-25T12:44:03.454Z,55.86
2023-04-25T12:45:07.988Z,55.62
2023-04-25T12:46:10.724Z,57.24
2023-04-25T12:47:15.208Z,58.86
2023-04-25T12:48:18.107Z,59.04
2023-04-25T12:49:22.737Z,58.72
2023-04-25T12:50:28.016Z,56.99
2023-04-25T12:51:34.174Z,55.81
2023-04-25T12:52:37.606Z,56.36
2023-04-25T12:53:41.942Z,56.45
2023-04-25T12:54:45.545Z,56.14
2023-04-25T12:55:48.807Z,55.85
2023-04-25T12:56:52.716Z,56.29
2023-04-25T12:57:55.674Z,56.32
2023-04-25T12:58:59.602Z,56.26
2023-04-25T13:00:02.162Z,55.81
2023-04-25T13:01:06.808Z,55.04
2023-04-25T13:02:10.507Z,56.44
2023-04-25T13:03:13.997Z,56.55
2023-04-25T13:04:18.795Z,57.66
2023-04-25T13:05:21.771Z,56.37
2023-04-25T13:06:25.516Z,55.29
2023-04-25T13:07:30.657Z,54.91
2023-04-25T13:08:33.528Z,54.52
2023-04-25T13:09:36.927Z,55.01
2023-04-25T13:10:40.470Z,57.70
2023-04-25T13:11:44.017Z,58.12
2023-04-25T13:12:47.200Z,56.45
2023-04-25T13:13:50.983Z,56.06
2023-04-25T13:14:53.476Z,55.81
2023-04-25T13:15:58.185Z,56.91
2023-04-25T13:17:01.833Z,57.88
2023-04-25T13:18:05.541Z,59.25
2023-04-25T13:19:12.121Z,59.15
2023-04-25T13:20:16.839Z,59.58
2023-04-25T13:21:19.546Z,59.90
2023-04-25T13:22:23.376Z,60.00
2023-04-25T13:23:29.015Z,58.57
2023-04-25T13:24:33.376Z,59.89
2023-04-25T13:25:35.883Z,60.20
2023-04-25T13:26:39.485Z,59.64
2023-04-25T13:27:41.880Z,59.26
2023-04-25T13:28:46.042Z,58.69
2023-04-25T13:29:48.974Z,57.85
2023-04-25T13:30:52.976Z,56.79
2023-04-25T13:31:56.230Z,56.69
2023-04-25T13:33:04.614Z,57.83
2023-04-25T13:34:08.898Z,58.21
2023-04-25T13:35:15.067Z,58.18
2023-04-25T13:36:17.816Z,57.71
2023-04-25T13:37:21.307Z,57.25
2023-04-25T13:38:25.166Z,57.36
2023-04-25T13:39:30.461Z,58.27
2023-04-25T13:40:33.397Z,57.70
2023-04-25T13:41:38.089Z,57.45
2023-04-25T13:42:41.839Z,57.71
2023-04-25T13:43:46.133Z,58.18
2023-04-25T13:44:48.940Z,60.38
2023-04-25T13:45:53.007Z,59.39
2023-04-25T13:46:56.795Z,59.22
2023-04-25T13:47:59.735Z,57.42
2023-04-25T13:49:12.401Z,57.61
2023-04-25T13:50:17.258Z,58.27
2023-04-25T13:51:21.821Z,58.17